sensor_id;sensor_type;location;lat;lon;timestamp;temperature;humidity
19536;HTU21D;9913;51.168;4.124;2022-07-30T00:01:32;15.31;77.45
19536;HTU21D;9913;51.168;4.124;2022-07-30T00:04:02;15.38;77.33
19536;HTU21D;9913;51.168;4.124;2022-07-30T00:06:30;15.37;77.29
19536;HTU21D;9913;51.168;4.124;2022-07-30T00:08:59;15.30;77.31
19536;HTU21D;9913;51.168;4.124;2022-07-30T00:11:29;15.29;77.47
19536;HTU21D;9913;51.168;4.124;2022-07-30T00:13:57;15.26;77.53
19536;HTU21D;9913;51.168;4.124;2022-07-30T00:16:26;15.27;77.70
19536;HTU21D;9913;51.168;4.124;2022-07-30T00:18:54;15.18;77.62
19536;HTU21D;9913;51.168;4.124;2022-07-30T00:21:24;15.13;78.08
19536;HTU21D;9913;51.168;4.124;2022-07-30T00:24:05;15.15;78.12
19536;HTU21D;9913;51.168;4.124;2022-07-30T00:26:36;15.17;78.24
19536;HTU21D;9913;51.168;4.124;2022-07-30T00:29:05;15.08;78.12
19536;HTU21D;9913;51.168;4.124;2022-07-30T00:31:33;15.10;77.88
19536;HTU21D;9913;51.168;4.124;2022-07-30T00:34:01;14.92;77.56
19536;HTU21D;9913;51.168;4.124;2022-07-30T00:36:30;14.92;77.95
19536;HTU21D;9913;51.168;4.124;2022-07-30T00:38:58;14.86;78.29
19536;HTU21D;9913;51.168;4.124;2022-07-30T00:41:27;14.86;78.11
19536;HTU21D;9913;51.168;4.124;2022-07-30T00:43:57;14.82;78.07
19536;HTU21D;9913;51.168;4.124;2022-07-30T00:46:25;14.83;78.19
19536;HTU21D;9913;51.168;4.124;2022-07-30T00:48:54;14.84;78.05
19536;HTU21D;9913;51.168;4.124;2022-07-30T00:51:22;14.88;78.05
19536;HTU21D;9913;51.168;4.124;2022-07-30T00:53:51;14.77;78.11
19536;HTU21D;9913;51.168;4.124;2022-07-30T00:56:19;14.70;78.10
19536;HTU21D;9913;51.168;4.124;2022-07-30T00:58:48;14.63;78.30
19536;HTU21D;9913;51.168;4.124;2022-07-30T01:01:17;14.58;78.59
19536;HTU21D;9913;51.168;4.124;2022-07-30T01:03:46;14.65;78.40
19536;HTU21D;9913;51.168;4.124;2022-07-30T01:06:15;14.68;78.41
19536;HTU21D;9913;51.168;4.124;2022-07-30T01:08:43;14.63;78.33
19536;HTU21D;9913;51.168;4.124;2022-07-30T01:11:12;14.59;78.40
19536;HTU21D;9913;51.168;4.124;2022-07-30T01:13:41;14.56;78.37
19536;HTU21D;9913;51.168;4.124;2022-07-30T01:16:10;14.54;78.47
19536;HTU21D;9913;51.168;4.124;2022-07-30T01:18:41;14.53;78.72
19536;HTU21D;9913;51.168;4.124;2022-07-30T01:21:31;14.54;78.79
19536;HTU21D;9913;51.168;4.124;2022-07-30T01:24:10;14.42;78.40
19536;HTU21D;9913;51.168;4.124;2022-07-30T01:26:41;14.42;78.37
19536;HTU21D;9913;51.168;4.124;2022-07-30T01:29:09;14.44;78.53
19536;HTU21D;9913;51.168;4.124;2022-07-30T01:31:40;14.50;78.91
19536;HTU21D;9913;51.168;4.124;2022-07-30T01:34:11;14.47;78.97
19536;HTU21D;9913;51.168;4.124;2022-07-30T01:36:44;14.45;79.08
19536;HTU21D;9913;51.168;4.124;2022-07-30T01:39:13;14.38;78.97
19536;HTU21D;9913;51.168;4.124;2022-07-30T01:41:44;14.39;79.26
19536;HTU21D;9913;51.168;4.124;2022-07-30T01:44:14;14.47;79.05
19536;HTU21D;9913;51.168;4.124;2022-07-30T01:46:51;14.40;78.85
19536;HTU21D;9913;51.168;4.124;2022-07-30T01:49:21;14.38;79.01
19536;HTU21D;9913;51.168;4.124;2022-07-30T01:51:51;14.36;79.22
19536;HTU21D;9913;51.168;4.124;2022-07-30T01:54:23;14.37;79.17
19536;HTU21D;9913;51.168;4.124;2022-07-30T01:56:58;14.37;79.11
19536;HTU21D;9913;51.168;4.124;2022-07-30T01:59:29;14.32;79.08
19536;HTU21D;9913;51.168;4.124;2022-07-30T02:01:59;14.26;79.11
19536;HTU21D;9913;51.168;4.124;2022-07-30T02:04:27;14.29;79.14
19536;HTU21D;9913;51.168;4.124;2022-07-30T02:07:01;14.24;78.95
19536;HTU21D;9913;51.168;4.124;2022-07-30T02:09:35;14.19;79.24
19536;HTU21D;9913;51.168;4.124;2022-07-30T02:12:15;14.23;79.43
19536;HTU21D;9913;51.168;4.124;2022-07-30T02:15:10;14.23;79.18
19536;HTU21D;9913;51.168;4.124;2022-07-30T02:17:43;14.19;79.08
19536;HTU21D;9913;51.168;4.124;2022-07-30T02:20:15;14.12;79.10
19536;HTU21D;9913;51.168;4.124;2022-07-30T02:22:45;14.14;79.52
19536;HTU21D;9913;51.168;4.124;2022-07-30T02:25:19;14.09;79.55
19536;HTU21D;9913;51.168;4.124;2022-07-30T02:27:53;14.09;79.49
19536;HTU21D;9913;51.168;4.124;2022-07-30T02:30:24;14.04;79.35
19536;HTU21D;9913;51.168;4.124;2022-07-30T02:33:00;14.03;79.54
19536;HTU21D;9913;51.168;4.124;2022-07-30T02:35:30;14.06;79.49
19536;HTU21D;9913;51.168;4.124;2022-07-30T02:38:00;13.97;79.49
19536;HTU21D;9913;51.168;4.124;2022-07-30T02:40:30;13.93;79.48
19536;HTU21D;9913;51.168;4.124;2022-07-30T02:43:01;13.93;79.51
19536;HTU21D;9913;51.168;4.124;2022-07-30T02:45:29;13.94;79.53
19536;HTU21D;9913;51.168;4.124;2022-07-30T02:48:01;13.93;79.53
19536;HTU21D;9913;51.168;4.124;2022-07-30T02:50:33;13.92;79.46
19536;HTU21D;9913;51.168;4.124;2022-07-30T02:53:05;13.85;79.66
19536;HTU21D;9913;51.168;4.124;2022-07-30T02:55:35;13.89;79.80
19536;HTU21D;9913;51.168;4.124;2022-07-30T02:58:06;13.91;79.71
19536;HTU21D;9913;51.168;4.124;2022-07-30T03:00:36;13.90;79.86
19536;HTU21D;9913;51.168;4.124;2022-07-30T03:03:06;13.91;79.84
19536;HTU21D;9913;51.168;4.124;2022-07-30T03:05:37;13.90;79.79
19536;HTU21D;9913;51.168;4.124;2022-07-30T03:08:07;13.92;79.98
19536;HTU21D;9913;51.168;4.124;2022-07-30T03:10:36;13.92;80.12
19536;HTU21D;9913;51.168;4.124;2022-07-30T03:13:08;13.85;80.00
19536;HTU21D;9913;51.168;4.124;2022-07-30T03:15:42;13.89;80.00
19536;HTU21D;9913;51.168;4.124;2022-07-30T03:18:12;13.89;79.91
19536;HTU21D;9913;51.168;4.124;2022-07-30T03:20:43;13.83;80.00
19536;HTU21D;9913;51.168;4.124;2022-07-30T03:23:17;13.82;80.07
19536;HTU21D;9913;51.168;4.124;2022-07-30T03:25:48;13.84;79.99
19536;HTU21D;9913;51.168;4.124;2022-07-30T03:28:22;13.81;80.09
19536;HTU21D;9913;51.168;4.124;2022-07-30T03:30:51;13.84;80.24
19536;HTU21D;9913;51.168;4.124;2022-07-30T03:33:21;13.88;80.07
19536;HTU21D;9913;51.168;4.124;2022-07-30T03:36:05;13.84;79.97
19536;HTU21D;9913;51.168;4.124;2022-07-30T03:38:36;13.93;80.09
19536;HTU21D;9913;51.168;4.124;2022-07-30T03:41:06;13.80;80.13
19536;HTU21D;9913;51.168;4.124;2022-07-30T03:43:37;13.81;80.24
19536;HTU21D;9913;51.168;4.124;2022-07-30T03:46:08;13.90;80.19
19536;HTU21D;9913;51.168;4.124;2022-07-30T03:48:41;13.88;80.30
19536;HTU21D;9913;51.168;4.124;2022-07-30T03:51:10;13.88;80.07
19536;HTU21D;9913;51.168;4.124;2022-07-30T03:53:41;13.86;79.96
19536;HTU21D;9913;51.168;4.124;2022-07-30T03:56:27;13.84;80.20
19536;HTU21D;9913;51.168;4.124;2022-07-30T03:59:26;13.83;80.01
19536;HTU21D;9913;51.168;4.124;2022-07-30T04:01:59;13.82;79.98
19536;HTU21D;9913;51.168;4.124;2022-07-30T04:05:06;13.94;80.18
19536;HTU21D;9913;51.168;4.124;2022-07-30T04:07:34;13.95;79.95
19536;HTU21D;9913;51.168;4.124;2022-07-30T04:10:12;13.98;79.98
19536;HTU21D;9913;51.168;4.124;2022-07-30T04:12:58;14.04;79.98
19536;HTU21D;9913;51.168;4.124;2022-07-30T04:15:36;14.09;79.97
19536;HTU21D;9913;51.168;4.124;2022-07-30T04:18:31;14.13;79.81
19536;HTU21D;9913;51.168;4.124;2022-07-30T04:21:02;14.17;80.01
19536;HTU21D;9913;51.168;4.124;2022-07-30T04:23:42;14.22;80.06
19536;HTU21D;9913;51.168;4.124;2022-07-30T04:26:33;14.22;80.01
19536;HTU21D;9913;51.168;4.124;2022-07-30T04:29:05;14.30;80.11
19536;HTU21D;9913;51.168;4.124;2022-07-30T04:31:35;14.30;79.79
19536;HTU21D;9913;51.168;4.124;2022-07-30T04:34:25;14.36;79.68
19536;HTU21D;9913;51.168;4.124;2022-07-30T04:36:53;14.33;79.70
19536;HTU21D;9913;51.168;4.124;2022-07-30T04:39:22;14.44;79.66
19536;HTU21D;9913;51.168;4.124;2022-07-30T04:41:50;14.54;79.62
19536;HTU21D;9913;51.168;4.124;2022-07-30T04:44:26;14.56;79.49
19536;HTU21D;9913;51.168;4.124;2022-07-30T04:47:19;14.65;79.41
19536;HTU21D;9913;51.168;4.124;2022-07-30T04:50:11;14.67;79.29
19536;HTU21D;9913;51.168;4.124;2022-07-30T04:52:42;14.73;79.30
19536;HTU21D;9913;51.168;4.124;2022-07-30T04:55:15;14.83;79.01
19536;HTU21D;9913;51.168;4.124;2022-07-30T04:57:47;14.80;78.92
19536;HTU21D;9913;51.168;4.124;2022-07-30T05:00:16;14.86;78.90
19536;HTU21D;9913;51.168;4.124;2022-07-30T05:02:48;14.92;78.80
19536;HTU21D;9913;51.168;4.124;2022-07-30T05:05:19;14.86;79.10
19536;HTU21D;9913;51.168;4.124;2022-07-30T05:07:50;15.06;78.75
19536;HTU21D;9913;51.168;4.124;2022-07-30T05:10:20;15.07;78.53
19536;HTU21D;9913;51.168;4.124;2022-07-30T05:12:48;15.15;78.47
19536;HTU21D;9913;51.168;4.124;2022-07-30T05:15:19;15.22;78.26
19536;HTU21D;9913;51.168;4.124;2022-07-30T05:18:05;15.31;78.18
19536;HTU21D;9913;51.168;4.124;2022-07-30T05:20:37;15.39;78.24
19536;HTU21D;9913;51.168;4.124;2022-07-30T05:23:12;15.47;78.07
19536;HTU21D;9913;51.168;4.124;2022-07-30T05:25:46;15.54;78.05
19536;HTU21D;9913;51.168;4.124;2022-07-30T05:28:23;15.55;78.21
19536;HTU21D;9913;51.168;4.124;2022-07-30T05:30:54;15.62;77.86
19536;HTU21D;9913;51.168;4.124;2022-07-30T05:33:25;15.61;77.63
19536;HTU21D;9913;51.168;4.124;2022-07-30T05:36:10;15.65;77.38
19536;HTU21D;9913;51.168;4.124;2022-07-30T05:38:39;15.61;77.60
19536;HTU21D;9913;51.168;4.124;2022-07-30T05:41:26;15.61;77.65
19536;HTU21D;9913;51.168;4.124;2022-07-30T05:44:09;15.63;77.81
19536;HTU21D;9913;51.168;4.124;2022-07-30T05:46:39;15.65;77.89
19536;HTU21D;9913;51.168;4.124;2022-07-30T05:49:09;15.72;77.75
19536;HTU21D;9913;51.168;4.124;2022-07-30T05:51:39;15.87;77.81
19536;HTU21D;9913;51.168;4.124;2022-07-30T05:54:07;15.99;77.44
19536;HTU21D;9913;51.168;4.124;2022-07-30T05:56:59;16.05;76.98
19536;HTU21D;9913;51.168;4.124;2022-07-30T05:59:33;16.14;77.29
19536;HTU21D;9913;51.168;4.124;2022-07-30T06:02:07;16.24;76.82
19536;HTU21D;9913;51.168;4.124;2022-07-30T06:04:54;16.39;76.72
19536;HTU21D;9913;51.168;4.124;2022-07-30T06:07:23;16.46;76.64
19536;HTU21D;9913;51.168;4.124;2022-07-30T06:09:53;16.52;76.56
19536;HTU21D;9913;51.168;4.124;2022-07-30T06:12:29;16.67;76.11
19536;HTU21D;9913;51.168;4.124;2022-07-30T06:14:58;16.78;75.99
19536;HTU21D;9913;51.168;4.124;2022-07-30T06:17:34;16.80;76.08
19536;HTU21D;9913;51.168;4.124;2022-07-30T06:20:37;16.89;76.14
19536;HTU21D;9913;51.168;4.124;2022-07-30T06:23:13;16.96;75.97
19536;HTU21D;9913;51.168;4.124;2022-07-30T06:26:14;17.09;75.83
19536;HTU21D;9913;51.168;4.124;2022-07-30T06:28:43;17.16;75.71
19536;HTU21D;9913;51.168;4.124;2022-07-30T06:31:19;17.26;75.29
19536;HTU21D;9913;51.168;4.124;2022-07-30T06:33:47;17.38;75.26
19536;HTU21D;9913;51.168;4.124;2022-07-30T06:36:17;17.47;75.18
19536;HTU21D;9913;51.168;4.124;2022-07-30T06:38:56;17.58;74.44
19536;HTU21D;9913;51.168;4.124;2022-07-30T06:41:39;17.73;74.23
19536;HTU21D;9913;51.168;4.124;2022-07-30T06:44:12;17.83;73.35
19536;HTU21D;9913;51.168;4.124;2022-07-30T06:46:59;18.07;73.80
19536;HTU21D;9913;51.168;4.124;2022-07-30T06:49:36;18.19;72.77
19536;HTU21D;9913;51.168;4.124;2022-07-30T06:52:09;18.34;73.05
19536;HTU21D;9913;51.168;4.124;2022-07-30T06:54:47;18.35;72.42
19536;HTU21D;9913;51.168;4.124;2022-07-30T06:57:25;18.34;72.20
19536;HTU21D;9913;51.168;4.124;2022-07-30T06:59:57;18.44;71.72
19536;HTU21D;9913;51.168;4.124;2022-07-30T07:02:34;18.48;71.96
19536;HTU21D;9913;51.168;4.124;2022-07-30T07:05:09;18.53;70.98
19536;HTU21D;9913;51.168;4.124;2022-07-30T07:07:42;18.66;70.26
19536;HTU21D;9913;51.168;4.124;2022-07-30T07:10:27;18.76;69.02
19536;HTU21D;9913;51.168;4.124;2022-07-30T07:13:09;18.80;68.87
19536;HTU21D;9913;51.168;4.124;2022-07-30T07:15:37;18.84;68.62
19536;HTU21D;9913;51.168;4.124;2022-07-30T07:18:10;18.91;67.99
19536;HTU21D;9913;51.168;4.124;2022-07-30T07:20:43;18.99;68.26
19536;HTU21D;9913;51.168;4.124;2022-07-30T07:23:14;19.03;67.75
19536;HTU21D;9913;51.168;4.124;2022-07-30T07:25:46;19.03;68.39
19536;HTU21D;9913;51.168;4.124;2022-07-30T07:28:15;19.25;67.52
19536;HTU21D;9913;51.168;4.124;2022-07-30T07:30:44;19.44;67.33
19536;HTU21D;9913;51.168;4.124;2022-07-30T07:33:13;19.60;66.94
19536;HTU21D;9913;51.168;4.124;2022-07-30T07:35:44;19.72;66.45
19536;HTU21D;9913;51.168;4.124;2022-07-30T07:38:22;19.80;65.43
19536;HTU21D;9913;51.168;4.124;2022-07-30T07:40:53;19.95;65.57
19536;HTU21D;9913;51.168;4.124;2022-07-30T07:43:21;19.88;65.21
19536;HTU21D;9913;51.168;4.124;2022-07-30T07:45:54;19.77;66.75
19536;HTU21D;9913;51.168;4.124;2022-07-30T07:48:26;20.04;63.93
19536;HTU21D;9913;51.168;4.124;2022-07-30T07:51:04;20.35;62.79
19536;HTU21D;9913;51.168;4.124;2022-07-30T07:53:37;20.47;63.31
19536;HTU21D;9913;51.168;4.124;2022-07-30T07:56:06;20.47;63.11
19536;HTU21D;9913;51.168;4.124;2022-07-30T07:58:35;20.51;63.31
19536;HTU21D;9913;51.168;4.124;2022-07-30T08:01:07;20.57;61.04
19536;HTU21D;9913;51.168;4.124;2022-07-30T08:03:56;20.30;61.34
19536;HTU21D;9913;51.168;4.124;2022-07-30T08:06:43;20.47;62.13
19536;HTU21D;9913;51.168;4.124;2022-07-30T08:09:31;20.87;60.60
19536;HTU21D;9913;51.168;4.124;2022-07-30T08:12:36;20.69;61.29
19536;HTU21D;9913;51.168;4.124;2022-07-30T08:15:23;20.75;60.36
19536;HTU21D;9913;51.168;4.124;2022-07-30T08:17:51;20.76;59.18
19536;HTU21D;9913;51.168;4.124;2022-07-30T08:20:56;20.91;58.55
19536;HTU21D;9913;51.168;4.124;2022-07-30T08:23:30;20.87;57.13
19536;HTU21D;9913;51.168;4.124;2022-07-30T08:26:00;20.99;58.98
19536;HTU21D;9913;51.168;4.124;2022-07-30T08:28:29;21.11;58.83
19536;HTU21D;9913;51.168;4.124;2022-07-30T08:31:03;21.16;58.49
19536;HTU21D;9913;51.168;4.124;2022-07-30T08:33:32;21.36;58.04
19536;HTU21D;9913;51.168;4.124;2022-07-30T08:36:02;21.36;61.12
19536;HTU21D;9913;51.168;4.124;2022-07-30T08:38:36;21.13;58.90
19536;HTU21D;9913;51.168;4.124;2022-07-30T08:41:08;21.14;60.63
19536;HTU21D;9913;51.168;4.124;2022-07-30T08:43:36;21.54;59.38
19536;HTU21D;9913;51.168;4.124;2022-07-30T08:46:08;21.69;58.69
19536;HTU21D;9913;51.168;4.124;2022-07-30T08:48:46;21.65;57.32
19536;HTU21D;9913;51.168;4.124;2022-07-30T08:51:16;21.52;57.51
19536;HTU21D;9913;51.168;4.124;2022-07-30T08:54:13;21.84;57.95
19536;HTU21D;9913;51.168;4.124;2022-07-30T08:56:44;22.36;57.90
19536;HTU21D;9913;51.168;4.124;2022-07-30T08:59:16;22.88;58.43
19536;HTU21D;9913;51.168;4.124;2022-07-30T09:01:44;23.47;55.64
19536;HTU21D;9913;51.168;4.124;2022-07-30T09:04:13;23.06;54.65
19536;HTU21D;9913;51.168;4.124;2022-07-30T09:06:41;22.57;55.35
19536;HTU21D;9913;51.168;4.124;2022-07-30T09:09:09;22.96;55.13
19536;HTU21D;9913;51.168;4.124;2022-07-30T09:11:40;23.16;55.32
19536;HTU21D;9913;51.168;4.124;2022-07-30T09:14:11;23.20;55.20
19536;HTU21D;9913;51.168;4.124;2022-07-30T09:16:42;23.10;55.51
19536;HTU21D;9913;51.168;4.124;2022-07-30T09:19:14;23.28;55.03
19536;HTU21D;9913;51.168;4.124;2022-07-30T09:21:54;23.36;53.94
19536;HTU21D;9913;51.168;4.124;2022-07-30T09:24:40;23.41;53.88
19536;HTU21D;9913;51.168;4.124;2022-07-30T09:27:42;23.37;56.47
19536;HTU21D;9913;51.168;4.124;2022-07-30T09:30:54;22.83;54.60
19536;HTU21D;9913;51.168;4.124;2022-07-30T09:33:43;22.50;55.29
19536;HTU21D;9913;51.168;4.124;2022-07-30T09:36:35;22.86;58.74
19536;HTU21D;9913;51.168;4.124;2022-07-30T09:39:43;23.23;54.60
19536;HTU21D;9913;51.168;4.124;2022-07-30T09:43:01;24.05;54.62
19536;HTU21D;9913;51.168;4.124;2022-07-30T09:45:30;23.87;75.38
19536;HTU21D;9913;51.168;4.124;2022-07-30T09:48:19;23.73;80.71
19536;HTU21D;9913;51.168;4.124;2022-07-30T09:50:48;23.76;84.26
19536;HTU21D;9913;51.168;4.124;2022-07-30T09:53:18;24.26;87.92
19536;HTU21D;9913;51.168;4.124;2022-07-30T09:55:49;24.56;87.55
19536;HTU21D;9913;51.168;4.124;2022-07-30T09:58:18;25.52;89.88
19536;HTU21D;9913;51.168;4.124;2022-07-30T10:00:56;25.93;95.49
19536;HTU21D;9913;51.168;4.124;2022-07-30T10:03:47;25.53;87.25
19536;HTU21D;9913;51.168;4.124;2022-07-30T10:06:31;25.49;88.08
19536;HTU21D;9913;51.168;4.124;2022-07-30T10:09:05;24.62;90.28
19536;HTU21D;9913;51.168;4.124;2022-07-30T10:11:46;24.84;97.08
19536;HTU21D;9913;51.168;4.124;2022-07-30T10:14:14;24.58;94.64
19536;HTU21D;9913;51.168;4.124;2022-07-30T10:16:58;24.47;90.18
19536;HTU21D;9913;51.168;4.124;2022-07-30T10:19:33;24.33;94.40
19536;HTU21D;9913;51.168;4.124;2022-07-30T10:22:26;24.51;91.87
19536;HTU21D;9913;51.168;4.124;2022-07-30T10:25:17;24.71;93.11
19536;HTU21D;9913;51.168;4.124;2022-07-30T10:28:08;25.36;93.33
19536;HTU21D;9913;51.168;4.124;2022-07-30T10:30:36;25.78;86.66
19536;HTU21D;9913;51.168;4.124;2022-07-30T10:33:06;25.45;85.47
19536;HTU21D;9913;51.168;4.124;2022-07-30T10:35:57;25.52;89.00
19536;HTU21D;9913;51.168;4.124;2022-07-30T10:38:30;25.72;84.03
19536;HTU21D;9913;51.168;4.124;2022-07-30T10:41:04;25.51;88.64
19536;HTU21D;9913;51.168;4.124;2022-07-30T10:43:59;25.21;86.61
19536;HTU21D;9913;51.168;4.124;2022-07-30T10:46:41;24.94;98.43
19536;HTU21D;9913;51.168;4.124;2022-07-30T10:49:12;25.22;89.89
19536;HTU21D;9913;51.168;4.124;2022-07-30T10:51:47;25.50;87.05
19536;HTU21D;9913;51.168;4.124;2022-07-30T10:54:38;25.50;88.73
19536;HTU21D;9913;51.168;4.124;2022-07-30T10:57:09;25.67;87.54
19536;HTU21D;9913;51.168;4.124;2022-07-30T11:00:09;25.65;85.74
19536;HTU21D;9913;51.168;4.124;2022-07-30T11:03:10;25.53;90.17
19536;HTU21D;9913;51.168;4.124;2022-07-30T11:05:42;25.45;93.99
19536;HTU21D;9913;51.168;4.124;2022-07-30T11:08:36;25.50;85.93
19536;HTU21D;9913;51.168;4.124;2022-07-30T11:11:43;25.31;89.08
19536;HTU21D;9913;51.168;4.124;2022-07-30T11:14:54;25.09;93.14
19536;HTU21D;9913;51.168;4.124;2022-07-30T11:17:57;25.18;90.41
19536;HTU21D;9913;51.168;4.124;2022-07-30T11:20:26;25.78;90.53
19536;HTU21D;9913;51.168;4.124;2022-07-30T11:23:11;26.17;91.39
19536;HTU21D;9913;51.168;4.124;2022-07-30T11:25:49;26.24;90.62
19536;HTU21D;9913;51.168;4.124;2022-07-30T11:28:38;25.78;91.92
19536;HTU21D;9913;51.168;4.124;2022-07-30T11:31:29;25.37;93.21
19536;HTU21D;9913;51.168;4.124;2022-07-30T11:34:27;25.84;90.38
19536;HTU21D;9913;51.168;4.124;2022-07-30T11:37:05;25.54;94.15
19536;HTU21D;9913;51.168;4.124;2022-07-30T11:40:10;25.76;89.31
19536;HTU21D;9913;51.168;4.124;2022-07-30T11:42:41;25.30;91.57
19536;HTU21D;9913;51.168;4.124;2022-07-30T11:45:23;26.12;95.09
19536;HTU21D;9913;51.168;4.124;2022-07-30T11:47:57;27.01;91.66
19536;HTU21D;9913;51.168;4.124;2022-07-30T11:50:29;26.98;88.07
19536;HTU21D;9913;51.168;4.124;2022-07-30T11:53:00;27.10;88.86
19536;HTU21D;9913;51.168;4.124;2022-07-30T11:55:32;27.20;88.80
19536;HTU21D;9913;51.168;4.124;2022-07-30T11:58:04;26.58;83.68
19536;HTU21D;9913;51.168;4.124;2022-07-30T12:00:35;26.73;88.43
19536;HTU21D;9913;51.168;4.124;2022-07-30T12:03:08;26.75;87.87
19536;HTU21D;9913;51.168;4.124;2022-07-30T12:05:38;27.25;84.68
19536;HTU21D;9913;51.168;4.124;2022-07-30T12:08:07;27.61;83.58
19536;HTU21D;9913;51.168;4.124;2022-07-30T12:10:57;27.00;81.12
19536;HTU21D;9913;51.168;4.124;2022-07-30T12:13:27;27.10;80.77
19536;HTU21D;9913;51.168;4.124;2022-07-30T12:16:14;27.52;83.30
19536;HTU21D;9913;51.168;4.124;2022-07-30T12:18:44;27.38;82.56
19536;HTU21D;9913;51.168;4.124;2022-07-30T12:21:14;27.26;78.22
19536;HTU21D;9913;51.168;4.124;2022-07-30T12:23:53;27.26;86.83
19536;HTU21D;9913;51.168;4.124;2022-07-30T12:26:23;27.40;79.84
19536;HTU21D;9913;51.168;4.124;2022-07-30T12:28:55;27.45;81.17
19536;HTU21D;9913;51.168;4.124;2022-07-30T12:31:24;26.94;82.31
19536;HTU21D;9913;51.168;4.124;2022-07-30T12:33:52;26.89;80.53
19536;HTU21D;9913;51.168;4.124;2022-07-30T12:36:27;26.51;81.83
19536;HTU21D;9913;51.168;4.124;2022-07-30T12:38:57;26.52;85.42
19536;HTU21D;9913;51.168;4.124;2022-07-30T12:41:42;26.40;84.70
19536;HTU21D;9913;51.168;4.124;2022-07-30T12:44:37;26.60;87.38
19536;HTU21D;9913;51.168;4.124;2022-07-30T12:47:17;26.94;82.45
19536;HTU21D;9913;51.168;4.124;2022-07-30T12:49:47;26.98;80.56
19536;HTU21D;9913;51.168;4.124;2022-07-30T12:52:23;26.86;84.58
19536;HTU21D;9913;51.168;4.124;2022-07-30T12:54:59;27.00;80.74
19536;HTU21D;9913;51.168;4.124;2022-07-30T12:57:50;26.85;86.03
19536;HTU21D;9913;51.168;4.124;2022-07-30T13:00:20;26.90;81.36
19536;HTU21D;9913;51.168;4.124;2022-07-30T13:02:49;26.54;82.06
19536;HTU21D;9913;51.168;4.124;2022-07-30T13:05:17;26.41;80.24
19536;HTU21D;9913;51.168;4.124;2022-07-30T13:07:56;26.42;87.75
19536;HTU21D;9913;51.168;4.124;2022-07-30T13:10:25;26.31;80.47
19536;HTU21D;9913;51.168;4.124;2022-07-30T13:12:57;26.31;81.36
19536;HTU21D;9913;51.168;4.124;2022-07-30T13:15:27;25.82;81.69
19536;HTU21D;9913;51.168;4.124;2022-07-30T13:17:55;25.84;87.60
19536;HTU21D;9913;51.168;4.124;2022-07-30T13:20:24;26.12;86.92
19536;HTU21D;9913;51.168;4.124;2022-07-30T13:22:52;26.46;82.39
19536;HTU21D;9913;51.168;4.124;2022-07-30T13:25:27;27.25;84.35
19536;HTU21D;9913;51.168;4.124;2022-07-30T13:28:06;26.90;82.58
19536;HTU21D;9913;51.168;4.124;2022-07-30T13:30:37;26.91;83.31
19536;HTU21D;9913;51.168;4.124;2022-07-30T13:33:05;27.40;75.41
19536;HTU21D;9913;51.168;4.124;2022-07-30T13:35:33;27.95;75.94
19536;HTU21D;9913;51.168;4.124;2022-07-30T13:38:02;27.67;79.72
19536;HTU21D;9913;51.168;4.124;2022-07-30T13:40:32;27.35;76.17
19536;HTU21D;9913;51.168;4.124;2022-07-30T13:43:02;27.63;77.63
19536;HTU21D;9913;51.168;4.124;2022-07-30T13:45:30;28.21;80.82
19536;HTU21D;9913;51.168;4.124;2022-07-30T13:48:00;28.06;79.01
19536;HTU21D;9913;51.168;4.124;2022-07-30T13:50:28;27.51;77.58
19536;HTU21D;9913;51.168;4.124;2022-07-30T13:52:57;27.63;80.91
19536;HTU21D;9913;51.168;4.124;2022-07-30T13:55:28;27.88;79.08
19536;HTU21D;9913;51.168;4.124;2022-07-30T13:57:57;27.60;76.80
19536;HTU21D;9913;51.168;4.124;2022-07-30T14:00:26;27.87;81.58
19536;HTU21D;9913;51.168;4.124;2022-07-30T14:03:01;28.19;76.71
19536;HTU21D;9913;51.168;4.124;2022-07-30T14:05:29;27.86;75.55
19536;HTU21D;9913;51.168;4.124;2022-07-30T14:07:59;27.79;75.29
19536;HTU21D;9913;51.168;4.124;2022-07-30T14:10:27;27.55;77.81
19536;HTU21D;9913;51.168;4.124;2022-07-30T14:12:56;27.63;75.38
19536;HTU21D;9913;51.168;4.124;2022-07-30T14:15:27;27.72;80.54
19536;HTU21D;9913;51.168;4.124;2022-07-30T14:17:59;28.11;74.48
19536;HTU21D;9913;51.168;4.124;2022-07-30T14:20:28;27.84;77.15
19536;HTU21D;9913;51.168;4.124;2022-07-30T14:22:56;27.54;76.02
19536;HTU21D;9913;51.168;4.124;2022-07-30T14:25:25;27.79;74.55
19536;HTU21D;9913;51.168;4.124;2022-07-30T14:27:53;27.91;75.83
19536;HTU21D;9913;51.168;4.124;2022-07-30T14:30:22;28.09;73.27
19536;HTU21D;9913;51.168;4.124;2022-07-30T14:32:51;27.35;75.31
19536;HTU21D;9913;51.168;4.124;2022-07-30T14:35:29;27.11;75.50
19536;HTU21D;9913;51.168;4.124;2022-07-30T14:37:57;26.92;75.47
19536;HTU21D;9913;51.168;4.124;2022-07-30T14:40:26;26.34;75.88
19536;HTU21D;9913;51.168;4.124;2022-07-30T14:42:54;26.27;76.89
19536;HTU21D;9913;51.168;4.124;2022-07-30T14:45:24;26.35;76.50
19536;HTU21D;9913;51.168;4.124;2022-07-30T14:47:54;26.40;77.32
19536;HTU21D;9913;51.168;4.124;2022-07-30T14:50:23;26.37;77.41
19536;HTU21D;9913;51.168;4.124;2022-07-30T14:52:53;26.66;74.96
19536;HTU21D;9913;51.168;4.124;2022-07-30T14:55:21;26.37;78.73
19536;HTU21D;9913;51.168;4.124;2022-07-30T14:57:49;26.79;74.53
19536;HTU21D;9913;51.168;4.124;2022-07-30T15:00:18;26.65;78.89
19536;HTU21D;9913;51.168;4.124;2022-07-30T15:02:50;26.87;74.67
19536;HTU21D;9913;51.168;4.124;2022-07-30T15:05:18;26.85;78.26
19536;HTU21D;9913;51.168;4.124;2022-07-30T15:07:46;26.79;74.56
19536;HTU21D;9913;51.168;4.124;2022-07-30T15:10:16;26.60;78.62
19536;HTU21D;9913;51.168;4.124;2022-07-30T15:12:45;26.17;75.54
19536;HTU21D;9913;51.168;4.124;2022-07-30T15:15:14;25.86;77.23
19536;HTU21D;9913;51.168;4.124;2022-07-30T15:17:43;25.28;77.99
19536;HTU21D;9913;51.168;4.124;2022-07-30T15:20:11;25.29;78.05
19536;HTU21D;9913;51.168;4.124;2022-07-30T15:22:40;25.56;78.67
19536;HTU21D;9913;51.168;4.124;2022-07-30T15:25:08;25.45;78.62
19536;HTU21D;9913;51.168;4.124;2022-07-30T15:27:38;25.37;77.47
19536;HTU21D;9913;51.168;4.124;2022-07-30T15:30:07;25.46;77.52
19536;HTU21D;9913;51.168;4.124;2022-07-30T15:32:36;25.84;76.16
19536;HTU21D;9913;51.168;4.124;2022-07-30T15:35:05;26.46;79.39
19536;HTU21D;9913;51.168;4.124;2022-07-30T15:37:39;27.15;76.44
19536;HTU21D;9913;51.168;4.124;2022-07-30T15:40:08;27.15;74.22
19536;HTU21D;9913;51.168;4.124;2022-07-30T15:42:38;27.01;73.33
19536;HTU21D;9913;51.168;4.124;2022-07-30T15:45:09;26.92;74.28
19536;HTU21D;9913;51.168;4.124;2022-07-30T15:47:44;27.29;75.32
19536;HTU21D;9913;51.168;4.124;2022-07-30T15:50:13;28.06;74.64
19536;HTU21D;9913;51.168;4.124;2022-07-30T15:52:42;27.82;72.38
19536;HTU21D;9913;51.168;4.124;2022-07-30T15:55:11;27.84;71.69
19536;HTU21D;9913;51.168;4.124;2022-07-30T15:57:41;27.23;71.97
19536;HTU21D;9913;51.168;4.124;2022-07-30T16:00:11;26.56;75.57
19536;HTU21D;9913;51.168;4.124;2022-07-30T16:02:41;26.35;74.44
19536;HTU21D;9913;51.168;4.124;2022-07-30T16:05:09;26.51;75.37
19536;HTU21D;9913;51.168;4.124;2022-07-30T16:07:40;26.66;77.18
19536;HTU21D;9913;51.168;4.124;2022-07-30T16:10:08;26.48;72.99
19536;HTU21D;9913;51.168;4.124;2022-07-30T16:12:38;26.33;74.64
19536;HTU21D;9913;51.168;4.124;2022-07-30T16:15:09;26.06;74.19
19536;HTU21D;9913;51.168;4.124;2022-07-30T16:17:38;26.02;76.82